createdAt,value
2023-10-18T00:01:05.833Z,102018.25
2023-10-18T00:03:34.337Z,102013.03
2023-10-18T00:06:13.635Z,102005.97
2023-10-18T00:08:40.953Z,102021.72
2023-10-18T00:11:08.133Z,102023.41
2023-10-18T00:13:35.322Z,102021.69
2023-10-18T00:16:04.924Z,102030.38
2023-10-18T00:18:36.169Z,102027.72
2023-10-18T00:21:07.132Z,102038.22
2023-10-18T00:23:35.265Z,102025.13
2023-10-18T00:26:06.627Z,102037.31
2023-10-18T00:28:38.188Z,102039.94
2023-10-18T00:31:18.765Z,102037.31
2023-10-18T00:33:46.681Z,102030.31
2023-10-18T00:36:18.212Z,101993.47
2023-10-18T00:38:46.802Z,102018.13
2023-10-18T00:41:23.632Z,102013.75
2023-10-18T00:43:54.427Z,102009.34
2023-10-18T00:46:22.401Z,102018.91
2023-10-18T00:48:50.053Z,102007.59
2023-10-18T00:51:19.168Z,101996.28
2023-10-18T00:53:48.033Z,101992.78
2023-10-18T00:56:17.092Z,101999.72
2023-10-18T00:58:46.131Z,101992.69
2023-10-18T01:01:14.546Z,102000.53
2023-10-18T01:03:49.014Z,102005.81
2023-10-18T01:06:27.177Z,102007.56
2023-10-18T01:09:03.136Z,101994.47
2023-10-18T01:11:30.264Z,101977.91
2023-10-18T01:14:01.008Z,101969.16
2023-10-18T01:16:32.766Z,101978.78
2023-10-18T01:19:00.425Z,101956.97
2023-10-18T01:21:28.151Z,101970.94
2023-10-18T01:24:01.058Z,101966.59
2023-10-18T01:26:31.334Z,101975.28
2023-10-18T01:29:04.837Z,101977.00
2023-10-18T01:31:32.858Z,101986.59
2023-10-18T01:34:00.327Z,101975.28
2023-10-18T01:36:33.112Z,101970.06
2023-10-18T01:39:00.900Z,101971.72
2023-10-18T01:41:30.762Z,101977.84
2023-10-18T01:44:06.310Z,101972.63
2023-10-18T01:46:38.853Z,101960.38
2023-10-18T01:49:07.608Z,101963.84
2023-10-18T01:51:35.131Z,101962.16
2023-10-18T01:54:13.835Z,101952.53
2023-10-18T01:56:44.431Z,101938.53
2023-10-18T01:59:20.331Z,101949.03
2023-10-18T02:01:54.857Z,101949.00
2023-10-18T02:04:48.791Z,101957.66
2023-10-18T02:07:19.779Z,101945.47
2023-10-18T02:09:51.724Z,101952.41
2023-10-18T02:12:22.759Z,101939.34
2023-10-18T02:14:51.102Z,101931.47
2023-10-18T02:17:20.094Z,101939.31
2023-10-18T02:19:47.654Z,101934.03
2023-10-18T02:22:17.490Z,101939.25
2023-10-18T02:24:45.351Z,101933.97
2023-10-18T02:27:21.138Z,101928.69
2023-10-18T02:29:48.749Z,101934.78
2023-10-18T02:32:33.121Z,101945.19
2023-10-18T02:35:00.539Z,101939.03
2023-10-18T02:37:27.966Z,101933.78
2023-10-18T02:40:08.722Z,101944.25
2023-10-18T02:42:56.718Z,101929.38
2023-10-18T02:45:23.827Z,101940.72
2023-10-18T02:47:54.095Z,101929.34
2023-10-18T02:50:21.781Z,101933.72
2023-10-18T02:52:48.891Z,101937.16
2023-10-18T02:55:20.257Z,101920.50
2023-10-18T02:57:50.847Z,101939.75
2023-10-18T03:00:18.920Z,101932.81
2023-10-18T03:02:46.222Z,101927.53
2023-10-18T03:05:13.522Z,101935.41
2023-10-18T03:07:42.752Z,101927.53
2023-10-18T03:10:12.990Z,101935.34
2023-10-18T03:12:45.716Z,101924.84
2023-10-18T03:15:18.692Z,101913.44
2023-10-18T03:17:50.204Z,101923.09
2023-10-18T03:20:24.868Z,101922.22
2023-10-18T03:22:53.497Z,101930.94
2023-10-18T03:25:31.852Z,101934.44
2023-10-18T03:27:59.843Z,101932.66
2023-10-18T03:30:46.220Z,101930.91
2023-10-18T03:33:14.218Z,101924.78
2023-10-18T03:35:41.539Z,101927.34
2023-10-18T03:38:18.415Z,101918.66
2023-10-18T03:40:58.596Z,101917.75
2023-10-18T03:43:33.534Z,101919.44
2023-10-18T03:46:29.715Z,101916.78
2023-10-18T03:48:59.746Z,101909.75
2023-10-18T03:51:26.929Z,101901.00
2023-10-18T03:53:54.744Z,101895.72
2023-10-18T03:56:24.775Z,101907.91
2023-10-18T03:59:01.863Z,101889.59
2023-10-18T04:01:29.998Z,101893.09
2023-10-18T04:03:58.141Z,101889.59
2023-10-18T04:06:29.722Z,101891.28
2023-10-18T04:08:59.248Z,101892.16
2023-10-18T04:11:29.256Z,101893.00
2023-10-18T04:13:58.146Z,101889.50
2023-10-18T04:16:31.729Z,101888.63
2023-10-18T04:19:00.121Z,101889.47
2023-10-18T04:21:27.601Z,101878.94
2023-10-18T04:23:57.618Z,101861.53
2023-10-18T04:26:28.049Z,101880.69
2023-10-18T04:28:59.198Z,101881.56
2023-10-18T04:31:26.591Z,101873.75
2023-10-18T04:33:56.614Z,101871.16
2023-10-18T04:36:24.779Z,101861.53
2023-10-18T04:38:53.005Z,101866.78
2023-10-18T04:41:27.768Z,101859.75
2023-10-18T04:44:08.976Z,101866.72
2023-10-18T04:46:39.822Z,101864.09
2023-10-18T04:49:10.180Z,101856.22
2023-10-18T04:51:37.634Z,101853.59
2023-10-18T04:54:11.824Z,101850.91
2023-10-18T04:56:40.308Z,101857.88
2023-10-18T04:59:18.082Z,101849.94
2023-10-18T05:01:56.742Z,101862.16
2023-10-18T05:04:35.498Z,101863.91
2023-10-18T05:07:12.429Z,101855.22
2023-10-18T05:09:43.406Z,101856.91
2023-10-18T05:12:22.877Z,101856.03
2023-10-18T05:15:07.903Z,101856.91
2023-10-18T05:17:40.381Z,101850.72
2023-10-18T05:20:17.299Z,101855.13
2023-10-18T05:22:46.406Z,101862.06
2023-10-18T05:25:23.457Z,101864.69
2023-10-18T05:28:02.147Z,101864.66
2023-10-18T05:30:49.685Z,101866.34
2023-10-18T05:33:31.355Z,101863.72
2023-10-18T05:36:12.909Z,101867.19
2023-10-18T05:39:02.844Z,101873.25
2023-10-18T05:41:29.963Z,101865.38
2023-10-18T05:44:01.787Z,101872.38
2023-10-18T05:46:33.377Z,101867.19
2023-10-18T05:49:02.172Z,101875.88
2023-10-18T05:51:38.464Z,101879.34
2023-10-18T05:54:07.082Z,101878.50
2023-10-18T05:56:35.105Z,101867.22
2023-10-18T05:59:28.927Z,101867.22
2023-10-18T06:02:00.102Z,101873.31
2023-10-18T06:04:39.173Z,101878.59
2023-10-18T06:07:10.880Z,101869.03
2023-10-18T06:09:48.679Z,101873.41
2023-10-18T06:12:43.465Z,101871.69
2023-10-18T06:15:17.574Z,101872.56
2023-10-18T06:17:48.718Z,101870.88
2023-10-18T06:20:29.541Z,101876.13
2023-10-18T06:23:10.482Z,101879.69
2023-10-18T06:25:45.645Z,101881.44
2023-10-18T06:28:13.262Z,101883.25
2023-10-18T06:30:40.713Z,101878.91
2023-10-18T06:33:16.946Z,101878.97
2023-10-18T06:35:46.374Z,101882.50
2023-10-18T06:38:18.643Z,101881.66
2023-10-18T06:41:06.267Z,101885.19
2023-10-18T06:43:34.815Z,101893.94
2023-10-18T06:46:02.082Z,101893.13
2023-10-18T06:48:32.312Z,101881.00
2023-10-18T06:51:00.658Z,101875.78
2023-10-18T06:53:28.038Z,101881.16
2023-10-18T06:56:03.652Z,101884.66
2023-10-18T06:58:31.877Z,101893.44
2023-10-18T07:01:31.634Z,101883.97
2023-10-18T07:04:01.598Z,101883.13
2023-10-18T07:06:36.702Z,101883.13
2023-10-18T07:09:23.939Z,101865.72
2023-10-18T07:11:52.451Z,101881.47
2023-10-18T07:14:21.323Z,101873.69
2023-10-18T07:16:55.698Z,101869.41
2023-10-18T07:19:27.982Z,101863.31
2023-10-18T07:22:02.006Z,101854.66
2023-10-18T07:24:39.668Z,101863.41
2023-10-18T07:27:10.506Z,101875.69
2023-10-18T07:29:38.603Z,101871.38
2023-10-18T07:32:14.516Z,101867.91
2023-10-18T07:34:44.276Z,101861.94
2023-10-18T07:37:18.999Z,101860.22
2023-10-18T07:39:50.619Z,101859.41
2023-10-18T07:42:20.242Z,101858.56
2023-10-18T07:44:54.027Z,101855.16
2023-10-18T07:47:21.570Z,101862.13
2023-10-18T07:49:49.372Z,101858.63
2023-10-18T07:52:16.926Z,101849.13
2023-10-18T07:54:44.176Z,101860.50
2023-10-18T07:57:16.333Z,101863.13
2023-10-18T07:59:47.234Z,101847.50
2023-10-18T08:02:21.133Z,101849.31
2023-10-18T08:04:48.521Z,101845.03
2023-10-18T08:07:16.939Z,101848.53
2023-10-18T08:09:44.964Z,101848.63
2023-10-18T08:12:31.696Z,101847.78
2023-10-18T08:14:59.128Z,101842.59
2023-10-18T08:17:46.110Z,101844.41
2023-10-18T08:20:23.271Z,101838.34
2023-10-18T08:22:52.208Z,101840.97
2023-10-18T08:25:33.712Z,101826.16
2023-10-18T08:28:03.317Z,101845.41
2023-10-18T08:31:00.973Z,101830.63
2023-10-18T08:33:28.320Z,101806.22
2023-10-18T08:36:00.041Z,101832.47
2023-10-18T08:38:30.871Z,101834.25
2023-10-18T08:41:15.133Z,101817.66
2023-10-18T08:43:59.687Z,101827.31
2023-10-18T08:46:28.266Z,101818.56
2023-10-18T08:48:59.802Z,101818.59
2023-10-18T08:51:29.713Z,101809.91
2023-10-18T08:54:02.103Z,101820.41
2023-10-18T08:56:34.701Z,101809.06
2023-10-18T08:59:12.458Z,101821.31
2023-10-18T09:02:00.531Z,101815.19
2023-10-18T09:04:32.765Z,101812.59
2023-10-18T09:07:07.013Z,101822.19
2023-10-18T09:09:37.402Z,101821.31
2023-10-18T09:12:16.315Z,101815.19
2023-10-18T09:14:51.954Z,101819.59
2023-10-18T09:17:24.588Z,101816.06
2023-10-18T09:19:56.815Z,101818.72
2023-10-18T09:22:24.345Z,101814.31
2023-10-18T09:24:52.048Z,101812.56
2023-10-18T09:27:23.816Z,101812.59
2023-10-18T09:29:53.366Z,101806.44
2023-10-18T09:32:46.758Z,101808.22
2023-10-18T09:35:24.307Z,101812.56
2023-10-18T09:37:52.060Z,101808.19
2023-10-18T09:40:20.044Z,101818.69
2023-10-18T09:42:48.038Z,101805.59
2023-10-18T09:45:15.600Z,101808.19
2023-10-18T09:47:43.351Z,101805.53
2023-10-18T09:50:24.139Z,101794.16
2023-10-18T09:52:57.987Z,101799.38
2023-10-18T09:55:29.893Z,101800.22
2023-10-18T09:58:15.417Z,101784.47
2023-10-18T10:00:43.842Z,101792.31
2023-10-18T10:03:11.920Z,101784.38
2023-10-18T10:05:44.339Z,101780.00
2023-10-18T10:08:13.115Z,101766.88
2023-10-18T10:10:47.046Z,101774.75
2023-10-18T10:13:19.970Z,101774.72
2023-10-18T10:15:56.961Z,101772.97
2023-10-18T10:18:44.085Z,101758.97
2023-10-18T10:21:17.225Z,101775.53
2023-10-18T10:23:45.020Z,101753.66
2023-10-18T10:26:28.873Z,101756.28
2023-10-18T10:29:04.589Z,101753.66
2023-10-18T10:32:00.240Z,101754.53
2023-10-18T10:34:33.848Z,101746.66
2023-10-18T10:37:16.828Z,101744.91
2023-10-18T10:39:45.659Z,101735.28
2023-10-18T10:42:43.082Z,101730.91
2023-10-18T10:45:21.202Z,101738.75
2023-10-18T10:47:51.770Z,101729.13
2023-10-18T10:50:46.682Z,101719.53
2023-10-18T10:53:32.282Z,101725.59
2023-10-18T10:56:20.862Z,101722.97
2023-10-18T10:59:25.826Z,101712.47
2023-10-18T11:01:57.776Z,101715.94
2023-10-18T11:04:29.625Z,101707.19
2023-10-18T11:07:02.757Z,101702.81
2023-10-18T11:09:35.604Z,101701.94
2023-10-18T11:12:19.064Z,101688.84
2023-10-18T11:14:51.401Z,101691.41
2023-10-18T11:17:18.947Z,101697.50
2023-10-18T11:19:55.900Z,101692.25
2023-10-18T11:22:25.234Z,101691.38
2023-10-18T11:24:56.667Z,101689.63
2023-10-18T11:27:27.380Z,101676.50
2023-10-18T11:30:12.566Z,101683.47
2023-10-18T11:32:40.075Z,101685.19
2023-10-18T11:35:19.556Z,101681.66
2023-10-18T11:37:49.207Z,101681.66
2023-10-18T11:40:17.542Z,101677.28
2023-10-18T11:42:56.543Z,101681.59
2023-10-18T11:45:29.828Z,101671.09
2023-10-18T11:48:01.095Z,101667.56
2023-10-18T11:50:49.787Z,101659.63
2023-10-18T11:53:24.333Z,101662.25
2023-10-18T11:56:10.026Z,101661.38
2023-10-18T11:58:38.615Z,101648.25
2023-10-18T12:01:20.665Z,101656.06
2023-10-18T12:03:49.909Z,101642.94
2023-10-18T12:06:22.219Z,101635.94
2023-10-18T12:09:09.597Z,101642.03
2023-10-18T12:11:38.641Z,101625.41
2023-10-18T12:14:06.381Z,101627.97
2023-10-18T12:16:34.644Z,101625.28
2023-10-18T12:19:01.960Z,101621.72
2023-10-18T12:21:32.173Z,101609.47
2023-10-18T12:23:59.512Z,101610.25
2023-10-18T12:26:26.661Z,101600.63
2023-10-18T12:28:56.389Z,101604.13
2023-10-18T12:31:29.851Z,101591.88
2023-10-18T12:34:01.438Z,101595.38
2023-10-18T12:36:34.524Z,101595.34
2023-10-18T12:39:02.186Z,101583.13
2023-10-18T12:41:33.196Z,101588.25
2023-10-18T12:44:00.963Z,101588.25
2023-10-18T12:46:28.167Z,101583.81
2023-10-18T12:48:57.605Z,101575.94
2023-10-18T12:51:43.146Z,101572.38
2023-10-18T12:54:20.928Z,101557.53
2023-10-18T12:56:57.898Z,101561.81
2023-10-18T12:59:25.828Z,101561.72
2023-10-18T13:01:59.822Z,101565.16
2023-10-18T13:04:28.399Z,101562.44
2023-10-18T13:06:55.636Z,101557.16
2023-10-18T13:09:23.391Z,101538.81
2023-10-18T13:12:17.292Z,101544.03
2023-10-18T13:14:45.533Z,101535.25
2023-10-18T13:17:14.242Z,101541.41
2023-10-18T13:19:45.304Z,101530.91
2023-10-18T13:22:19.093Z,101540.56
2023-10-18T13:24:47.425Z,101519.63
2023-10-18T13:27:21.986Z,101531.00
2023-10-18T13:30:02.023Z,101523.16
2023-10-18T13:32:29.990Z,101525.78
2023-10-18T13:34:57.529Z,101514.38
2023-10-18T13:37:25.370Z,101516.16
2023-10-18T13:39:54.252Z,101505.78
2023-10-18T13:42:23.003Z,101514.59
2023-10-18T13:44:50.915Z,101504.97
2023-10-18T13:47:19.853Z,101505.88
2023-10-18T13:49:47.331Z,101506.75
2023-10-18T13:52:14.917Z,101507.66
2023-10-18T13:54:42.703Z,101492.88
2023-10-18T13:57:10.118Z,101501.53
2023-10-18T13:59:39.476Z,101497.31
2023-10-18T14:02:07.753Z,101499.91
2023-10-18T14:04:36.418Z,101490.41
2023-10-18T14:07:06.600Z,101498.25
2023-10-18T14:09:35.688Z,101487.88
2023-10-18T14:12:05.120Z,101487.00
2023-10-18T14:14:34.356Z,101486.13
2023-10-18T14:17:02.215Z,101487.03
2023-10-18T14:19:31.222Z,101477.44
2023-10-18T14:21:59.020Z,101488.84
2023-10-18T14:24:26.644Z,101489.72
2023-10-18T14:26:54.118Z,101478.38
2023-10-18T14:29:24.644Z,101466.19
2023-10-18T14:31:51.831Z,101479.31
2023-10-18T14:34:19.113Z,101474.97
2023-10-18T14:36:51.460Z,101467.09
2023-10-18T14:39:35.651Z,101471.53
2023-10-18T14:42:08.346Z,101459.31
2023-10-18T14:44:35.936Z,101462.81
2023-10-18T14:47:03.642Z,101452.34
2023-10-18T14:49:33.488Z,101459.41
2023-10-18T14:52:00.889Z,101448.94
2023-10-18T14:54:28.194Z,101453.28
2023-10-18T14:56:57.010Z,101447.22
2023-10-18T14:59:25.099Z,101447.22
2023-10-18T15:01:56.067Z,101444.59
2023-10-18T15:04:25.642Z,101442.88
2023-10-18T15:06:55.027Z,101444.66
2023-10-18T15:09:22.588Z,101440.31
2023-10-18T15:11:50.631Z,101436.81
2023-10-18T15:14:19.577Z,101439.44
2023-10-18T15:16:47.893Z,101430.75
2023-10-18T15:19:16.197Z,101435.16
2023-10-18T15:21:47.213Z,101435.19
2023-10-18T15:24:14.671Z,101435.25
2023-10-18T15:26:41.743Z,101425.66
2023-10-18T15:29:13.305Z,101425.69
2023-10-18T15:31:40.523Z,101425.72
2023-10-18T15:34:07.730Z,101424.00
2023-10-18T15:36:34.897Z,101428.41
2023-10-18T15:39:02.915Z,101407.47
2023-10-18T15:41:30.118Z,101412.72
2023-10-18T15:44:01.715Z,101400.50
2023-10-18T15:46:34.283Z,101400.56
2023-10-18T15:49:02.619Z,101409.34
2023-10-18T15:51:31.710Z,101407.63
2023-10-18T15:54:00.977Z,101395.44
2023-10-18T15:56:29.870Z,101385.03
2023-10-18T15:58:59.782Z,101394.66
2023-10-18T16:01:29.424Z,101383.31
2023-10-18T16:03:59.738Z,101377.28
2023-10-18T16:06:27.134Z,101381.63
2023-10-18T16:08:54.761Z,101386.03
2023-10-18T16:11:25.717Z,101383.47
2023-10-18T16:13:57.307Z,101380.88
2023-10-18T16:16:27.028Z,101373.91
2023-10-18T16:18:57.792Z,101370.44
2023-10-18T16:21:25.938Z,101361.72
2023-10-18T16:23:53.665Z,101364.41
2023-10-18T16:26:24.739Z,101374.91
2023-10-18T16:28:53.131Z,101369.72
2023-10-18T16:31:22.839Z,101363.63
2023-10-18T16:33:50.370Z,101367.09
2023-10-18T16:36:21.124Z,101373.16
2023-10-18T16:38:52.244Z,101364.50
2023-10-18T16:41:19.619Z,101368.91
2023-10-18T16:43:48.349Z,101363.72
2023-10-18T16:46:16.773Z,101359.38
2023-10-18T16:48:45.670Z,101361.16
2023-10-18T16:51:13.032Z,101364.66
2023-10-18T16:53:42.950Z,101357.72
2023-10-18T16:56:12.488Z,101350.81
2023-10-18T16:58:40.125Z,101356.00
2023-10-18T17:01:13.784Z,101357.78
2023-10-18T17:03:45.908Z,101354.31
2023-10-18T17:06:15.028Z,101357.81
2023-10-18T17:08:44.490Z,101363.09
2023-10-18T17:11:14.611Z,101350.88
2023-10-18T17:13:44.463Z,101353.50
2023-10-18T17:16:14.201Z,101347.44
2023-10-18T17:18:43.807Z,101343.09
2023-10-18T17:21:19.892Z,101331.75
2023-10-18T17:23:52.468Z,101328.31
2023-10-18T17:26:19.693Z,101336.16
2023-10-18T17:28:47.917Z,101334.41
2023-10-18T17:31:21.339Z,101330.94
2023-10-18T17:33:48.735Z,101326.56
2023-10-18T17:36:19.558Z,101324.00
2023-10-18T17:38:47.935Z,101312.66
2023-10-18T17:41:15.721Z,101316.16
2023-10-18T17:43:43.000Z,101314.41
2023-10-18T17:46:10.495Z,101310.09
2023-10-18T17:48:37.798Z,101305.72
2023-10-18T17:51:12.852Z,101301.38
2023-10-18T17:53:40.390Z,101300.50
2023-10-18T17:56:08.109Z,101294.44
2023-10-18T17:58:38.745Z,101288.34
2023-10-18T18:01:06.574Z,101285.72
2023-10-18T18:03:34.156Z,101283.13
2023-10-18T18:06:08.669Z,101280.50
2023-10-18T18:08:37.189Z,101284.91
2023-10-18T18:11:04.848Z,101271.88
2023-10-18T18:13:35.588Z,101276.22
2023-10-18T18:16:06.827Z,101276.22
2023-10-18T18:18:34.456Z,101273.63
2023-10-18T18:21:02.837Z,101277.97
2023-10-18T18:23:30.304Z,101271.88
2023-10-18T18:26:14.317Z,101262.31
2023-10-18T18:28:42.443Z,101275.41
2023-10-18T18:31:10.439Z,101270.19
2023-10-18T18:33:37.737Z,101273.66
2023-10-18T18:36:05.383Z,101268.44
2023-10-18T18:38:32.483Z,101263.22
2023-10-18T18:40:59.590Z,101264.97
2023-10-18T18:43:28.838Z,101260.63
2023-10-18T18:46:00.266Z,101267.59
2023-10-18T18:48:27.606Z,101265.00
2023-10-18T18:50:55.992Z,101258.84
2023-10-18T18:53:23.394Z,101270.19
2023-10-18T18:55:50.548Z,101264.97
2023-10-18T18:58:17.651Z,101264.97
2023-10-18T19:00:44.775Z,101246.69
2023-10-18T19:03:12.112Z,101259.72
2023-10-18T19:05:39.960Z,101258.84
2023-10-18T19:08:08.396Z,101258.00
2023-10-18T19:10:36.572Z,101254.50
2023-10-18T19:13:03.820Z,101260.59
2023-10-18T19:15:30.908Z,101248.44
2023-10-18T19:17:58.085Z,101260.63
2023-10-18T19:20:27.828Z,101259.78
2023-10-18T19:22:57.377Z,101253.66
2023-10-18T19:25:24.804Z,101258.94
2023-10-18T19:27:51.951Z,101259.78
2023-10-18T19:30:20.763Z,101258.91
2023-10-18T19:32:48.014Z,101256.28
2023-10-18T19:35:16.240Z,101258.03
2023-10-18T19:37:43.545Z,101252.84
2023-10-18T19:40:13.763Z,101248.44
2023-10-18T19:42:42.469Z,101260.66
2023-10-18T19:45:12.265Z,101250.22
2023-10-18T19:47:39.593Z,101234.53
2023-10-18T19:50:07.920Z,101246.72
2023-10-18T19:52:35.478Z,101250.22
2023-10-18T19:55:05.386Z,101237.16
2023-10-18T19:57:34.386Z,101246.75
2023-10-18T20:00:01.817Z,101245.00
2023-10-18T20:02:29.023Z,101251.97
2023-10-18T20:04:57.135Z,101232.84
2023-10-18T20:07:24.952Z,101238.94
2023-10-18T20:09:54.181Z,101235.44
2023-10-18T20:12:22.881Z,101236.31
2023-10-18T20:14:50.592Z,101236.31
2023-10-18T20:17:17.751Z,101226.72
2023-10-18T20:19:45.989Z,101227.59
2023-10-18T20:22:13.203Z,101224.13
2023-10-18T20:24:40.511Z,101221.50
2023-10-18T20:27:08.189Z,101216.31
2023-10-18T20:29:35.418Z,101211.97
2023-10-18T20:32:04.005Z,101209.34
2023-10-18T20:34:35.304Z,101210.22
2023-10-18T20:37:02.980Z,101210.25
2023-10-18T20:39:40.137Z,101205.91
2023-10-18T20:42:11.814Z,101199.81
2023-10-18T20:44:41.833Z,101195.44
2023-10-18T20:47:10.864Z,101194.56
2023-10-18T20:49:41.298Z,101183.28
2023-10-18T20:52:08.359Z,101191.09
2023-10-18T20:54:38.396Z,101190.25
2023-10-18T20:57:12.703Z,101191.13
2023-10-18T20:59:46.471Z,101177.19
2023-10-18T21:02:18.597Z,101183.28
2023-10-18T21:04:46.396Z,101180.69
2023-10-18T21:07:16.918Z,101185.91
2023-10-18T21:09:44.937Z,101165.91
2023-10-18T21:12:17.459Z,101172.84
2023-10-18T21:14:47.769Z,101165.88
2023-10-18T21:17:15.867Z,101164.13
2023-10-18T21:19:44.453Z,101161.56
2023-10-18T21:22:11.733Z,101170.22
2023-10-18T21:24:38.884Z,101164.13
2023-10-18T21:27:05.943Z,101163.25
2023-10-18T21:29:32.999Z,101158.91
2023-10-18T21:32:00.338Z,101149.34
2023-10-18T21:34:27.744Z,101145.00
2023-10-18T21:36:55.575Z,101150.25
2023-10-18T21:39:25.937Z,101141.53
2023-10-18T21:41:53.025Z,101135.44
2023-10-18T21:44:20.108Z,101140.66
2023-10-18T21:46:47.296Z,101129.34
2023-10-18T21:49:14.394Z,101118.06
2023-10-18T21:51:41.596Z,101119.78
2023-10-18T21:54:08.689Z,101120.63
2023-10-18T21:56:35.887Z,101124.13
2023-10-18T21:59:03.122Z,101118.91
2023-10-18T22:01:42.736Z,101111.06
2023-10-18T22:04:10.616Z,101108.47
2023-10-18T22:06:39.822Z,101108.47
2023-10-18T22:09:16.948Z,101098.00
2023-10-18T22:11:49.828Z,101096.28
2023-10-18T22:14:20.552Z,101098.88
2023-10-18T22:16:55.768Z,101094.53
2023-10-18T22:19:31.488Z,101094.53
2023-10-18T22:21:59.133Z,101103.22
2023-10-18T22:24:36.813Z,101090.19
2023-10-18T22:27:06.761Z,101091.94
2023-10-18T22:29:35.778Z,101090.22
2023-10-18T22:34:33.180Z,101089.34
2023-10-18T22:37:00.456Z,101084.13
2023-10-18T22:39:35.300Z,101077.16
2023-10-18T22:42:09.714Z,100999.00
2023-10-18T22:44:40.098Z,101064.97
2023-10-18T22:47:21.376Z,101061.50
2023-10-18T22:49:49.806Z,101060.63
2023-10-18T22:52:39.424Z,101055.41
2023-10-18T22:55:30.471Z,101045.84
2023-10-18T22:57:57.562Z,101039.75
2023-10-18T23:00:33.121Z,101039.75
2023-10-18T23:03:11.106Z,101029.31
2023-10-18T23:05:41.584Z,101031.06
2023-10-18T23:08:35.723Z,101017.16
2023-10-18T23:13:48.846Z,100994.53
2023-10-18T23:16:37.235Z,100999.75
2023-10-18T23:19:11.534Z,100984.94
2023-10-18T23:21:46.471Z,100985.81
2023-10-18T23:24:16.178Z,100980.59
2023-10-18T23:27:01.905Z,100961.47
2023-10-18T23:29:40.976Z,100962.34
2023-10-18T23:32:32.220Z,100959.72
2023-10-18T23:35:18.272Z,100950.16
2023-10-18T23:37:55.940Z,100938.84
2023-10-18T23:40:42.581Z,100926.66
2023-10-18T23:43:24.616Z,100932.75
2023-10-18T23:45:58.238Z,100924.91
2023-10-18T23:48:29.399Z,100925.78
2023-10-18T23:51:10.919Z,100913.59
2023-10-18T23:53:46.867Z,100908.38
2023-10-18T23:56:15.800Z,100907.50
2023-10-18T23:58:50.871Z,100887.53
